Time;durP1;ratioP1;P1;durP2;ratioP2;P2;SDS_P1;SDS_P2;PMS_P1;PMS_P2;Temp;Humidity;BMP_temperature;BMP_pressure;BME280_temperature;BME280_humidity;BME280_pressure;Samples;Min_cycle;Max_cycle;Signal;HPM_P1;HPM_P2
2023/05/18 00:00:59;;;;;;;2.90;1.98;;;;;;;;;;5092329;28;20353;-60
2023/05/18 00:03:24;;;;;;;2.28;2.08;;;;;;;;;;5092547;28;20036;-61
2023/05/18 00:05:50;;;;;;;2.40;2.20;;;;;;;;;;5092568;28;20544;-59
2023/05/18 00:08:15;;;;;;;4.45;2.20;;;;;;;;;;5092317;28;20498;-60
2023/05/18 00:10:41;;;;;;;2.67;2.00;;;;;;;;;;5092577;28;20063;-61
2023/05/18 00:13:07;;;;;;;3.00;1.90;;;;;;;;;;5092225;28;20383;-60
2023/05/18 00:15:33;;;;;;;2.47;2.00;;;;;;;;;;5092205;28;20460;-60
2023/05/18 00:17:58;;;;;;;2.45;2.25;;;;;;;;;;5092237;28;20147;-63
2023/05/18 00:20:25;;;;;;;2.25;2.05;;;;;;;;;;5090957;28;20106;-60
2023/05/18 00:22:51;;;;;;;2.63;2.10;;;;;;;;;;5092066;28;20035;-60
2023/05/18 00:25:17;;;;;;;2.30;2.10;;;;;;;;;;5092761;28;20020;-60
2023/05/18 00:27:42;;;;;;;2.55;2.20;;;;;;;;;;5092172;28;20499;-60
2023/05/18 00:30:08;;;;;;;3.65;2.30;;;;;;;;;;5091080;28;20111;-60
2023/05/18 00:32:34;;;;;;;2.53;1.90;;;;;;;;;;5092302;28;20491;-60
2023/05/18 00:35:00;;;;;;;2.75;2.20;;;;;;;;;;5092321;28;20107;-61
2023/05/18 00:37:25;;;;;;;2.83;2.20;;;;;;;;;;5091956;28;20115;-60
2023/05/18 00:39:51;;;;;;;3.03;2.40;;;;;;;;;;5092050;28;20028;-60
2023/05/18 00:42:16;;;;;;;3.20;2.17;;;;;;;;;;5092092;28;20422;-60
2023/05/18 00:44:42;;;;;;;2.65;2.25;;;;;;;;;;5091899;28;20032;-60
2023/05/18 00:47:08;;;;;;;2.03;1.80;;;;;;;;;;5091876;28;20028;-60
2023/05/18 00:49:34;;;;;;;4.28;2.25;;;;;;;;;;5092245;28;20016;-63
2023/05/18 00:52:00;;;;;;;2.28;2.08;;;;;;;;;;5095368;28;20024;-60
2023/05/18 00:54:25;;;;;;;4.90;2.25;;;;;;;;;;5095828;28;20498;-61
2023/05/18 00:56:51;;;;;;;2.42;2.00;;;;;;;;;;5095570;28;20036;-60
2023/05/18 00:59:17;;;;;;;2.65;2.10;;;;;;;;;;5095545;28;20024;-60
2023/05/18 01:01:43;;;;;;;2.20;2.00;;;;;;;;;;5095352;28;20144;-60
2023/05/18 01:04:12;;;;;;;2.20;2.00;;;;;;;;;;5095690;28;20375;-61
2023/05/18 01:06:39;;;;;;;2.40;1.90;;;;;;;;;;5095407;28;20023;-59
2023/05/18 01:09:07;;;;;;;4.47;2.20;;;;;;;;;;5095322;28;20503;-60
2023/05/18 01:11:50;;;;;;;2.58;2.20;;;;;;;;;;5095504;28;20149;-59
2023/05/18 01:14:25;;;;;;;3.03;1.80;;;;;;;;;;5095361;28;20059;-60
2023/05/18 01:17:06;;;;;;;2.53;2.20;;;;;;;;;;5095151;28;20493;-61
2023/05/18 01:19:59;;;;;;;2.60;2.13;;;;;;;;;;5095292;28;20484;-59
2023/05/18 01:22:33;;;;;;;2.13;1.92;;;;;;;;;;5095419;28;20097;-60
2023/05/18 01:25:13;;;;;;;2.25;2.03;;;;;;;;;;5095349;28;20039;-60
2023/05/18 01:27:41;;;;;;;2.20;2.00;;;;;;;;;;5095333;28;20032;-60
2023/05/18 01:30:07;;;;;;;2.53;2.00;;;;;;;;;;5095268;28;20028;-60
2023/05/18 01:32:40;;;;;;;2.47;1.85;;;;;;;;;;5095145;28;20031;-60
2023/05/18 01:35:05;;;;;;;2.15;1.88;;;;;;;;;;5094945;28;20107;-62
2023/05/18 01:37:31;;;;;;;2.75;1.90;;;;;;;;;;5095097;28;20493;-60
2023/05/18 01:39:56;;;;;;;3.10;2.20;;;;;;;;;;5095018;28;20024;-60
2023/05/18 01:42:26;;;;;;;2.25;1.77;;;;;;;;;;5094600;28;20401;-60
2023/05/18 01:45:06;;;;;;;2.92;2.45;;;;;;;;;;5094585;28;20035;-60
2023/05/18 01:47:33;;;;;;;3.90;2.10;;;;;;;;;;5094977;28;20055;-60
2023/05/18 01:50:03;;;;;;;2.13;1.92;;;;;;;;;;5094602;28;20024;-60
2023/05/18 01:52:34;;;;;;;3.35;1.90;;;;;;;;;;5094481;28;20043;-60
2023/05/18 01:55:03;;;;;;;2.97;1.80;;;;;;;;;;5094505;28;20103;-60
2023/05/18 01:57:31;;;;;;;2.10;1.90;;;;;;;;;;5094809;28;20031;-60
2023/05/18 02:00:01;;;;;;;3.45;2.15;;;;;;;;;;5094146;28;20113;-60
2023/05/18 02:02:29;;;;;;;2.67;1.80;;;;;;;;;;5093870;28;20027;-60
2023/05/18 02:04:55;;;;;;;2.20;2.00;;;;;;;;;;5094190;28;20035;-60
2023/05/18 02:07:21;;;;;;;2.10;1.90;;;;;;;;;;5094549;28;20036;-60
2023/05/18 02:09:46;;;;;;;2.10;1.90;;;;;;;;;;5094197;28;20429;-61
2023/05/18 02:12:12;;;;;;;2.20;1.90;;;;;;;;;;5094109;28;20020;-60
2023/05/18 02:14:37;;;;;;;2.08;1.98;;;;;;;;;;5094374;28;20028;-60
2023/05/18 02:17:05;;;;;;;2.88;1.80;;;;;;;;;;5094134;28;20472;-60
2023/05/18 02:19:31;;;;;;;2.08;1.90;;;;;;;;;;5093947;28;20547;-60
2023/05/18 02:21:57;;;;;;;2.30;2.10;;;;;;;;;;5093961;28;20030;-60
2023/05/18 02:24:23;;;;;;;2.08;1.98;;;;;;;;;;5093778;28;20032;-60
2023/05/18 02:26:50;;;;;;;2.20;2.00;;;;;;;;;;5093793;28;20073;-61
2023/05/18 02:29:16;;;;;;;2.28;1.80;;;;;;;;;;5093826;28;20032;-60
2023/05/18 02:31:42;;;;;;;2.67;1.75;;;;;;;;;;5094248;28;20032;-60
2023/05/18 02:34:09;;;;;;;2.38;2.17;;;;;;;;;;5093697;28;20484;-60
2023/05/18 02:36:41;;;;;;;2.20;2.03;;;;;;;;;;5093643;28;20118;-60
2023/05/18 02:39:08;;;;;;;2.30;2.00;;;;;;;;;;5093952;28;20016;-60
2023/05/18 02:41:34;;;;;;;2.45;1.85;;;;;;;;;;5093619;28;20464;-60
2023/05/18 02:44:03;;;;;;;2.60;1.77;;;;;;;;;;5093301;28;20044;-60
2023/05/18 02:46:29;;;;;;;2.55;2.20;;;;;;;;;;5093426;28;20035;-60
2023/05/18 02:48:54;;;;;;;2.08;1.88;;;;;;;;;;5093650;28;20024;-62
2023/05/18 02:51:23;;;;;;;3.28;1.98;;;;;;;;;;5093500;28;20020;-61
2023/05/18 02:53:50;;;;;;;2.17;1.98;;;;;;;;;;5093276;28;20027;-60
2023/05/18 02:56:17;;;;;;;2.20;2.00;;;;;;;;;;5093262;28;20039;-62
2023/05/18 02:58:43;;;;;;;2.72;1.70;;;;;;;;;;5093283;28;20024;-61
2023/05/18 03:01:11;;;;;;;2.00;1.80;;;;;;;;;;5093470;28;20047;-62
2023/05/18 03:03:37;;;;;;;3.78;2.10;;;;;;;;;;5093053;28;20507;-60
2023/05/18 03:06:07;;;;;;;1.95;1.80;;;;;;;;;;5093174;28;20110;-60
2023/05/18 03:08:32;;;;;;;3.30;2.20;;;;;;;;;;5093130;28;20089;-60
2023/05/18 03:10:58;;;;;;;2.75;1.90;;;;;;;;;;5093017;28;20024;-59
2023/05/18 03:13:24;;;;;;;2.17;1.95;;;;;;;;;;5092503;28;20020;-60
2023/05/18 03:15:50;;;;;;;2.58;2.00;;;;;;;;;;5093266;28;20422;-60
2023/05/18 03:18:17;;;;;;;2.63;1.90;;;;;;;;;;5093179;28;20033;-62
2023/05/18 03:20:43;;;;;;;2.35;1.90;;;;;;;;;;5092851;28;20468;-59
2023/05/18 03:23:09;;;;;;;2.03;1.75;;;;;;;;;;5092643;28;20032;-59
2023/05/18 03:25:36;;;;;;;2.22;1.90;;;;;;;;;;5093024;28;20070;-60
2023/05/18 03:28:05;;;;;;;2.92;2.17;;;;;;;;;;5092697;28;20476;-61
2023/05/18 03:30:32;;;;;;;3.13;1.80;;;;;;;;;;5093078;28;20119;-60
2023/05/18 03:32:58;;;;;;;1.80;1.70;;;;;;;;;;5092945;28;20032;-59
2023/05/18 03:35:23;;;;;;;3.00;2.08;;;;;;;;;;5092600;28;20019;-62
2023/05/18 03:37:49;;;;;;;2.65;2.05;;;;;;;;;;5092646;28;20020;-60
2023/05/18 03:40:15;;;;;;;1.70;1.60;;;;;;;;;;5092879;28;20399;-60
2023/05/18 03:42:41;;;;;;;2.20;2.00;;;;;;;;;;5092329;28;20411;-60
2023/05/18 03:45:08;;;;;;;1.77;1.67;;;;;;;;;;5092550;28;20032;-59
2023/05/18 03:47:34;;;;;;;2.03;1.80;;;;;;;;;;5092476;28;20024;-60
2023/05/18 03:50:00;;;;;;;1.98;1.75;;;;;;;;;;5092450;28;20028;-60
2023/05/18 03:52:25;;;;;;;2.10;1.90;;;;;;;;;;5091281;28;20020;-60
2023/05/18 03:54:51;;;;;;;2.65;1.85;;;;;;;;;;5092368;28;20028;-61
2023/05/18 03:57:16;;;;;;;2.10;1.77;;;;;;;;;;5092789;28;20024;-59
2023/05/18 03:59:45;;;;;;;2.20;2.00;;;;;;;;;;5092383;28;20020;-61
2023/05/18 04:02:11;;;;;;;2.00;1.90;;;;;;;;;;5092432;28;20024;-59
2023/05/18 04:04:44;;;;;;;2.00;1.80;;;;;;;;;;5092522;28;20420;-62
2023/05/18 04:07:11;;;;;;;1.90;1.70;;;;;;;;;;5092245;28;20561;-62
2023/05/18 04:09:38;;;;;;;2.38;1.88;;;;;;;;;;5092560;28;20082;-62
2023/05/18 04:12:04;;;;;;;4.20;1.80;;;;;;;;;;5092625;28;20028;-60
2023/05/18 04:14:31;;;;;;;2.10;1.90;;;;;;;;;;5092553;28;20488;-60
2023/05/18 04:17:03;;;;;;;1.88;1.77;;;;;;;;;;5092166;28;20029;-60
2023/05/18 04:19:30;;;;;;;1.83;1.73;;;;;;;;;;5092320;28;20034;-59
2023/05/18 04:21:56;;;;;;;1.73;1.60;;;;;;;;;;5092265;28;20059;-61
2023/05/18 04:24:21;;;;;;;2.40;2.03;;;;;;;;;;5092667;28;20051;-60
2023/05/18 04:26:47;;;;;;;2.97;1.88;;;;;;;;;;5094876;28;20031;-59
2023/05/18 04:29:12;;;;;;;1.77;1.67;;;;;;;;;;5096188;28;20016;-59
2023/05/18 04:31:43;;;;;;;1.95;1.75;;;;;;;;;;5096837;28;20025;-59
2023/05/18 04:34:09;;;;;;;2.35;1.83;;;;;;;;;;5096371;28;20027;-60
2023/05/18 04:36:34;;;;;;;2.42;2.00;;;;;;;;;;5096131;28;20539;-59
2023/05/18 04:39:06;;;;;;;2.40;1.90;;;;;;;;;;5095897;28;20028;-59
2023/05/18 04:41:33;;;;;;;1.60;1.50;;;;;;;;;;5096225;28;20024;-60
2023/05/18 04:43:59;;;;;;;2.47;1.90;;;;;;;;;;5095668;28;20048;-62
2023/05/18 04:46:25;;;;;;;2.00;1.90;;;;;;;;;;5096107;28;20047;-60
2023/05/18 04:48:52;;;;;;;2.13;1.92;;;;;;;;;;5095873;28;20440;-60
2023/05/18 04:51:20;;;;;;;2.17;1.98;;;;;;;;;;5095730;28;20028;-62
2023/05/18 04:53:52;;;;;;;2.08;1.88;;;;;;;;;;5095950;28;20016;-59
2023/05/18 04:56:21;;;;;;;3.13;2.13;;;;;;;;;;5095668;28;20028;-61
2023/05/18 04:58:48;;;;;;;2.23;2.03;;;;;;;;;;5095889;28;20024;-61
2023/05/18 05:01:14;;;;;;;2.67;1.83;;;;;;;;;;5095602;28;20344;-61
2023/05/18 05:03:43;;;;;;;2.50;2.08;;;;;;;;;;5095270;28;20028;-60
2023/05/18 05:06:09;;;;;;;2.20;2.00;;;;;;;;;;5095672;28;20076;-62
2023/05/18 05:08:36;;;;;;;2.45;2.20;;;;;;;;;;5095578;28;20028;-60
2023/05/18 05:11:01;;;;;;;3.10;2.20;;;;;;;;;;5095351;28;20484;-62
2023/05/18 05:13:27;;;;;;;1.88;1.73;;;;;;;;;;5095508;28;20031;-59
2023/05/18 05:15:53;;;;;;;3.13;1.83;;;;;;;;;;5095269;28;20052;-59
2023/05/18 05:18:18;;;;;;;4.88;2.00;;;;;;;;;;5095204;28;20870;-60
2023/05/18 05:20:44;;;;;;;2.95;2.17;;;;;;;;;;5095027;28;20020;-59
2023/05/18 05:23:09;;;;;;;2.50;2.00;;;;;;;;;;5095373;28;20045;-59
2023/05/18 05:25:35;;;;;;;2.30;1.95;;;;;;;;;;5095417;28;20020;-60
2023/05/18 05:28:00;;;;;;;2.10;1.95;;;;;;;;;;5095423;28;20490;-62
2023/05/18 05:30:26;;;;;;;4.85;2.10;;;;;;;;;;5095600;28;20570;-65
2023/05/18 05:32:51;;;;;;;2.25;2.05;;;;;;;;;;5094905;28;20589;-65
2023/05/18 05:35:17;;;;;;;2.88;2.40;;;;;;;;;;5095134;28;20115;-64
2023/05/18 05:37:43;;;;;;;3.35;2.25;;;;;;;;;;5094014;28;20043;-64
2023/05/18 05:40:09;;;;;;;3.95;2.30;;;;;;;;;;5094773;28;20024;-64
2023/05/18 05:42:34;;;;;;;3.78;2.38;;;;;;;;;;5094891;28;20021;-64
2023/05/18 05:45:00;;;;;;;5.20;2.47;;;;;;;;;;5095087;28;20388;-63
2023/05/18 05:47:26;;;;;;;6.00;2.63;;;;;;;;;;5094629;28;20027;-63
2023/05/18 05:49:51;;;;;;;3.38;2.38;;;;;;;;;;5094637;28;20035;-64
2023/05/18 05:52:17;;;;;;;3.40;2.38;;;;;;;;;;5094406;28;20020;-63
2023/05/18 05:54:43;;;;;;;5.00;2.47;;;;;;;;;;5094535;28;20036;-64
2023/05/18 05:57:08;;;;;;;4.55;2.58;;;;;;;;;;5094408;28;20032;-65
2023/05/18 05:59:34;;;;;;;4.07;2.70;;;;;;;;;;5094323;28;20027;-63
2023/05/18 06:02:00;;;;;;;4.00;2.60;;;;;;;;;;5094383;28;20039;-63
2023/05/18 06:04:25;;;;;;;3.67;2.50;;;;;;;;;;5094511;28;20077;-63
2023/05/18 06:06:51;;;;;;;4.72;2.75;;;;;;;;;;5094591;28;20099;-64
2023/05/18 06:09:16;;;;;;;4.35;2.30;;;;;;;;;;5094297;28;20031;-64
2023/05/18 06:11:42;;;;;;;5.03;2.90;;;;;;;;;;5094569;28;20031;-64
2023/05/18 06:14:07;;;;;;;4.97;2.88;;;;;;;;;;5094293;28;20296;-64
2023/05/18 06:16:33;;;;;;;2.97;2.50;;;;;;;;;;5094378;28;20027;-64
2023/05/18 06:18:58;;;;;;;5.45;2.67;;;;;;;;;;5094433;28;20115;-63
2023/05/18 06:21:24;;;;;;;4.40;2.58;;;;;;;;;;5094508;28;20024;-65
2023/05/18 06:23:50;;;;;;;4.55;3.05;;;;;;;;;;5093808;28;20080;-63
2023/05/18 06:26:15;;;;;;;6.65;3.30;;;;;;;;;;5093797;28;20111;-64
2023/05/18 06:28:41;;;;;;;4.60;2.83;;;;;;;;;;5093892;28;20024;-63
2023/05/18 06:31:07;;;;;;;3.38;2.65;;;;;;;;;;5093874;28;20020;-64
2023/05/18 06:33:33;;;;;;;4.32;2.80;;;;;;;;;;5093802;28;20114;-63
2023/05/18 06:35:59;;;;;;;4.72;3.30;;;;;;;;;;5093952;28;20153;-63
2023/05/18 06:38:24;;;;;;;4.93;2.75;;;;;;;;;;5093556;28;20480;-63
2023/05/18 06:40:50;;;;;;;4.88;3.00;;;;;;;;;;5093562;28;20032;-64
2023/05/18 06:43:15;;;;;;;5.45;2.88;;;;;;;;;;5093141;28;20044;-64
2023/05/18 06:45:41;;;;;;;6.13;3.35;;;;;;;;;;5094039;28;20115;-65
2023/05/18 06:48:06;;;;;;;5.30;3.35;;;;;;;;;;5093807;28;20029;-64
2023/05/18 06:50:32;;;;;;;5.63;2.92;;;;;;;;;;5093226;28;20012;-65
2023/05/18 06:52:57;;;;;;;6.35;3.30;;;;;;;;;;5093325;28;20419;-63
2023/05/18 06:55:23;;;;;;;5.38;2.90;;;;;;;;;;5093869;28;20024;-63
2023/05/18 06:57:48;;;;;;;5.82;3.13;;;;;;;;;;5093614;28;20038;-64
2023/05/18 07:00:15;;;;;;;5.55;3.05;;;;;;;;;;5093539;28;20368;-65
2023/05/18 07:02:43;;;;;;;6.18;3.28;;;;;;;;;;5093177;28;20468;-65
2023/05/18 07:05:08;;;;;;;5.18;3.08;;;;;;;;;;5093041;28;20048;-65
2023/05/18 07:07:35;;;;;;;5.38;3.22;;;;;;;;;;5093080;28;20060;-65
2023/05/18 07:10:02;;;;;;;7.57;3.08;;;;;;;;;;5093337;28;20079;-64
2023/05/18 07:12:28;;;;;;;5.97;3.05;;;;;;;;;;5093258;28;20028;-64
2023/05/18 07:14:53;;;;;;;6.60;3.38;;;;;;;;;;5093031;28;20428;-65
2023/05/18 07:17:19;;;;;;;5.13;2.92;;;;;;;;;;5093208;28;20028;-65
2023/05/18 07:19:44;;;;;;;6.38;3.30;;;;;;;;;;5093264;28;20024;-66
2023/05/18 07:22:10;;;;;;;6.40;3.30;;;;;;;;;;5093218;28;20368;-64
2023/05/18 07:24:35;;;;;;;5.28;3.30;;;;;;;;;;5092980;28;20054;-65
2023/05/18 07:27:01;;;;;;;5.25;3.05;;;;;;;;;;5093184;28;20387;-65
2023/05/18 07:29:28;;;;;;;5.78;3.20;;;;;;;;;;5092675;28;20020;-65
2023/05/18 07:31:53;;;;;;;7.40;3.33;;;;;;;;;;5092696;28;20026;-64
2023/05/18 07:34:19;;;;;;;4.95;3.28;;;;;;;;;;5092686;28;20024;-65
2023/05/18 07:36:44;;;;;;;5.97;3.15;;;;;;;;;;5092628;28;20104;-64
2023/05/18 07:39:17;;;;;;;3.90;2.78;;;;;;;;;;5092887;28;20028;-64
2023/05/18 07:41:44;;;;;;;5.47;2.95;;;;;;;;;;5092552;28;20028;-65
2023/05/18 07:44:09;;;;;;;8.93;3.35;;;;;;;;;;5092326;28;20455;-65
2023/05/18 07:46:35;;;;;;;3.47;2.85;;;;;;;;;;5092558;28;20059;-64
2023/05/18 07:49:00;;;;;;;6.05;2.97;;;;;;;;;;5092852;28;20486;-64
2023/05/18 07:51:26;;;;;;;5.25;3.03;;;;;;;;;;5092680;28;20020;-64
2023/05/18 07:53:52;;;;;;;5.28;3.10;;;;;;;;;;5092749;28;20028;-66
2023/05/18 07:56:17;;;;;;;5.88;2.75;;;;;;;;;;5092413;28;20448;-65
2023/05/18 07:58:43;;;;;;;5.75;2.78;;;;;;;;;;5092927;28;20016;-65
2023/05/18 08:01:08;;;;;;;4.47;3.05;;;;;;;;;;5099119;28;20380;-64
2023/05/18 08:03:34;;;;;;;5.47;2.83;;;;;;;;;;5099009;28;20028;-66
2023/05/18 08:06:00;;;;;;;4.85;2.90;;;;;;;;;;5099137;28;20032;-66
2023/05/18 08:08:26;;;;;;;4.15;2.80;;;;;;;;;;5094225;28;20093;-65
2023/05/18 08:10:52;;;;;;;4.40;2.90;;;;;;;;;;5095429;28;20787;-65
2023/05/18 08:13:17;;;;;;;3.88;2.95;;;;;;;;;;5098611;28;20055;-65
2023/05/18 08:15:43;;;;;;;4.00;2.70;;;;;;;;;;5099450;28;20024;-64
2023/05/18 08:18:08;;;;;;;4.75;2.95;;;;;;;;;;5099467;28;20460;-64
2023/05/18 08:20:34;;;;;;;5.55;3.13;;;;;;;;;;5099487;28;20440;-65
2023/05/18 08:23:00;;;;;;;4.50;2.70;;;;;;;;;;5097618;28;20024;-64
2023/05/18 08:25:26;;;;;;;4.03;2.60;;;;;;;;;;5099217;28;20035;-65
2023/05/18 08:27:51;;;;;;;4.13;2.45;;;;;;;;;;5099279;28;20024;-65
2023/05/18 08:30:20;;;;;;;5.00;3.33;;;;;;;;;;5099103;28;20383;-65
2023/05/18 08:32:46;;;;;;;4.85;2.88;;;;;;;;;;5099233;28;20384;-64
2023/05/18 08:35:12;;;;;;;4.00;2.60;;;;;;;;;;5097757;28;20036;-65
2023/05/18 08:37:38;;;;;;;4.03;2.80;;;;;;;;;;5099074;28;20020;-65
2023/05/18 08:40:07;;;;;;;4.07;3.15;;;;;;;;;;5099043;28;20107;-64
2023/05/18 08:42:38;;;;;;;4.50;2.80;;;;;;;;;;5097566;28;20056;-65
2023/05/18 08:45:13;;;;;;;5.60;3.08;;;;;;;;;;5093884;28;20025;-66
2023/05/18 08:47:40;;;;;;;6.10;3.10;;;;;;;;;;5078219;28;20038;-64
2023/05/18 08:50:12;;;;;;;5.03;2.90;;;;;;;;;;5078710;28;20098;-65
2023/05/18 08:52:41;;;;;;;3.92;2.60;;;;;;;;;;5078453;28;20020;-64
2023/05/18 08:55:11;;;;;;;5.60;3.10;;;;;;;;;;5078721;28;20046;-65
2023/05/18 08:57:38;;;;;;;5.37;2.97;;;;;;;;;;5078379;28;20036;-64
2023/05/18 09:00:04;;;;;;;5.22;2.85;;;;;;;;;;5078747;28;20024;-64
2023/05/18 09:02:32;;;;;;;5.03;2.80;;;;;;;;;;5078722;28;20061;-64
2023/05/18 09:04:58;;;;;;;5.07;2.65;;;;;;;;;;5092793;28;20379;-64
2023/05/18 09:07:26;;;;;;;4.15;2.58;;;;;;;;;;5098932;28;20031;-64
2023/05/18 09:09:54;;;;;;;3.42;2.60;;;;;;;;;;5098485;28;20059;-64
2023/05/18 09:12:22;;;;;;;5.15;3.10;;;;;;;;;;5094316;28;20089;-64
2023/05/18 09:14:47;;;;;;;4.53;3.10;;;;;;;;;;5095182;28;20035;-65
2023/05/18 09:17:13;;;;;;;4.70;2.72;;;;;;;;;;5095606;28;20032;-64
2023/05/18 09:19:39;;;;;;;4.05;2.75;;;;;;;;;;5095415;28;20055;-64
2023/05/18 09:22:05;;;;;;;3.92;2.83;;;;;;;;;;5095139;28;20020;-63
2023/05/18 09:24:32;;;;;;;4.82;2.63;;;;;;;;;;5094928;28;20024;-64
2023/05/18 09:26:58;;;;;;;4.38;2.90;;;;;;;;;;5095018;28;20028;-64
2023/05/18 09:29:23;;;;;;;5.15;2.90;;;;;;;;;;5095163;28;20489;-65
2023/05/18 09:31:50;;;;;;;4.13;2.90;;;;;;;;;;5095605;28;20028;-65
2023/05/18 09:34:18;;;;;;;4.57;2.95;;;;;;;;;;5095244;28;20028;-63
2023/05/18 09:36:48;;;;;;;4.13;3.00;;;;;;;;;;5095119;28;20061;-64
2023/05/18 09:39:13;;;;;;;;;;;;;;;;;;5077431;28;20039;-65
2023/05/18 09:41:40;;;;;;;5.50;2.80;;;;;;;;;;5095062;28;19912;-64
2023/05/18 09:44:11;;;;;;;4.68;2.42;;;;;;;;;;5094506;28;20127;-65
2023/05/18 09:46:40;;;;;;;4.03;2.83;;;;;;;;;;5094893;28;20392;-65
2023/05/18 09:49:07;;;;;;;6.63;2.90;;;;;;;;;;5094506;28;20040;-65
2023/05/18 09:51:38;;;;;;;5.13;2.80;;;;;;;;;;5094558;28;20115;-64
2023/05/18 09:54:07;;;;;;;5.07;2.70;;;;;;;;;;5094578;28;20029;-64
2023/05/18 09:56:37;;;;;;;4.20;2.80;;;;;;;;;;5094337;28;20020;-65
2023/05/18 09:59:10;;;;;;;3.92;2.65;;;;;;;;;;5094613;28;20028;-65
2023/05/18 10:01:37;;;;;;;4.55;2.83;;;;;;;;;;5094576;28;20028;-66
2023/05/18 10:04:06;;;;;;;4.07;2.40;;;;;;;;;;5093371;28;20036;-64
2023/05/18 10:06:31;;;;;;;3.63;2.70;;;;;;;;;;5094188;28;20028;-65
2023/05/18 10:09:00;;;;;;;3.72;2.60;;;;;;;;;;5094271;28;20035;-65
2023/05/18 10:11:30;;;;;;;4.00;2.75;;;;;;;;;;5094125;28;20050;-66
2023/05/18 10:13:57;;;;;;;3.90;2.78;;;;;;;;;;5094270;28;20031;-65
2023/05/18 10:16:24;;;;;;;4.45;2.70;;;;;;;;;;5094309;28;20024;-64
2023/05/18 10:18:52;;;;;;;4.00;2.80;;;;;;;;;;5094208;28;20031;-66
2023/05/18 10:21:19;;;;;;;4.57;2.63;;;;;;;;;;5093963;28;20472;-64
2023/05/18 10:23:48;;;;;;;3.80;2.72;;;;;;;;;;5093591;28;20486;-65
2023/05/18 10:26:20;;;;;;;3.50;2.55;;;;;;;;;;5093862;28;20020;-65
2023/05/18 10:28:49;;;;;;;4.13;2.47;;;;;;;;;;5094282;28;20036;-64
2023/05/18 10:31:15;;;;;;;;;;;;;;;;;;5075989;28;20052;-64
2023/05/18 10:33:43;;;;;;;3.75;2.78;;;;;;;;;;5093814;28;19934;-64
2023/05/18 10:36:09;;;;;;;4.07;2.83;;;;;;;;;;5093927;28;20028;-65
2023/05/18 10:38:38;;;;;;;4.15;2.67;;;;;;;;;;5093793;28;20043;-65
2023/05/18 10:41:05;;;;;;;3.53;2.65;;;;;;;;;;5093618;28;20020;-65
2023/05/18 10:43:32;;;;;;;4.05;2.72;;;;;;;;;;5093407;28;20043;-65
2023/05/18 10:46:00;;;;;;;3.60;2.45;;;;;;;;;;5091864;28;20043;-66
2023/05/18 10:48:28;;;;;;;6.15;3.28;;;;;;;;;;5093188;28;20020;-65
2023/05/18 10:50:55;;;;;;;6.65;3.67;;;;;;;;;;5091235;28;20081;-65
2023/05/18 10:53:23;;;;;;;7.25;4.00;;;;;;;;;;5093215;28;20082;-65
2023/05/18 10:55:50;;;;;;;7.45;4.25;;;;;;;;;;5093281;28;20024;-65
2023/05/18 10:58:18;;;;;;;8.70;4.60;;;;;;;;;;5093600;28;20031;-64
2023/05/18 11:00:56;;;;;;;7.28;4.40;;;;;;;;;;5093513;28;20028;-64
2023/05/18 11:03:24;;;;;;;8.35;4.22;;;;;;;;;;5093261;28;20078;-65
2023/05/18 11:05:51;;;;;;;5.85;4.10;;;;;;;;;;5093054;28;20356;-65
2023/05/18 11:08:26;;;;;;;7.28;4.05;;;;;;;;;;5091784;28;20491;-65
2023/05/18 11:11:02;;;;;;;6.93;4.20;;;;;;;;;;5091537;28;20229;-65
2023/05/18 11:13:30;;;;;;;9.18;4.63;;;;;;;;;;5093017;28;20466;-64
2023/05/18 11:15:57;;;;;;;9.95;4.88;;;;;;;;;;5092907;28;20045;-64
2023/05/18 11:18:52;;;;;;;7.55;4.78;;;;;;;;;;5093173;28;20035;-64
2023/05/18 11:21:28;;;;;;;8.95;5.15;;;;;;;;;;5085599;28;20044;-64
2023/05/18 11:24:12;;;;;;;10.52;5.22;;;;;;;;;;5092985;28;20035;-64
2023/05/18 11:26:39;;;;;;;12.98;5.35;;;;;;;;;;5092313;28;20027;-64
2023/05/18 11:29:21;;;;;;;13.27;6.53;;;;;;;;;;5092998;28;20099;-64
2023/05/18 11:31:50;;;;;;;13.75;6.72;;;;;;;;;;5092656;28;20537;-64
2023/05/18 11:34:43;;;;;;;15.15;6.68;;;;;;;;;;5092295;28;20021;-64
2023/05/18 11:37:10;;;;;;;14.95;6.70;;;;;;;;;;5092507;28;20027;-64
2023/05/18 11:39:36;;;;;;;12.57;6.22;;;;;;;;;;5092477;28;20028;-65
2023/05/18 11:42:07;;;;;;;17.27;6.65;;;;;;;;;;5092568;28;20028;-64
2023/05/18 11:44:33;;;;;;;15.85;6.95;;;;;;;;;;5092287;28;20496;-65
2023/05/18 11:46:58;;;;;;;14.98;6.95;;;;;;;;;;5092576;28;20034;-65
2023/05/18 11:49:32;;;;;;;11.77;5.80;;;;;;;;;;5090647;28;20111;-65
2023/05/18 11:52:13;;;;;;;13.38;6.25;;;;;;;;;;5092657;28;20032;-65
2023/05/18 11:54:45;;;;;;;14.77;6.00;;;;;;;;;;5092824;28;20023;-65
2023/05/18 11:57:13;;;;;;;11.93;5.63;;;;;;;;;;5092613;28;20604;-65
2023/05/18 11:59:41;;;;;;;13.90;6.22;;;;;;;;;;5092380;28;20031;-65
2023/05/18 12:02:11;;;;;;;14.82;6.65;;;;;;;;;;5092392;28;20112;-65
2023/05/18 12:04:49;;;;;;;13.93;6.25;;;;;;;;;;5092724;28;20368;-67
2023/05/18 12:07:17;;;;;;;11.95;5.97;;;;;;;;;;5092796;28;20040;-67
2023/05/18 12:09:44;;;;;;;10.88;6.10;;;;;;;;;;5092456;28;20046;-66
2023/05/18 12:12:12;;;;;;;14.02;5.43;;;;;;;;;;5092306;28;20464;-65
2023/05/18 12:14:41;;;;;;;14.98;6.10;;;;;;;;;;5092753;28;20050;-66
2023/05/18 12:17:07;;;;;;;10.60;6.00;;;;;;;;;;5092653;28;20042;-66
2023/05/18 12:19:43;;;;;;;11.05;5.82;;;;;;;;;;5092129;28;20544;-66
2023/05/18 12:22:10;;;;;;;10.93;5.70;;;;;;;;;;5082244;28;20418;-64
2023/05/18 12:24:37;;;;;;;11.52;5.85;;;;;;;;;;5092042;28;20028;-66
2023/05/18 12:27:05;;;;;;;15.38;6.28;;;;;;;;;;5074269;28;20085;-64
2023/05/18 12:29:31;;;;;;;12.85;6.22;;;;;;;;;;5071955;28;20020;-65
2023/05/18 12:31:57;;;;;;;12.57;6.43;;;;;;;;;;5072113;28;20408;-66
2023/05/18 12:34:28;;;;;;;11.30;6.20;;;;;;;;;;5082821;28;20024;-66
2023/05/18 12:36:54;;;;;;;12.50;6.03;;;;;;;;;;5092479;28;20032;-66
2023/05/18 12:39:20;;;;;;;12.40;6.35;;;;;;;;;;5091830;28;20024;-66
2023/05/18 12:41:47;;;;;;;13.35;5.68;;;;;;;;;;5092026;28;20036;-66
2023/05/18 12:44:13;;;;;;;11.00;5.85;;;;;;;;;;5091888;28;20091;-65
2023/05/18 12:46:40;;;;;;;13.00;6.25;;;;;;;;;;5094630;28;20024;-65
2023/05/18 12:49:06;;;;;;;11.43;5.82;;;;;;;;;;5095867;28;20024;-65
2023/05/18 12:51:34;;;;;;;11.73;5.70;;;;;;;;;;5090202;28;20032;-65
2023/05/18 12:54:00;;;;;;;12.38;5.68;;;;;;;;;;5075741;28;20157;-65
2023/05/18 12:56:27;;;;;;;10.23;5.97;;;;;;;;;;5076025;28;20392;-65
2023/05/18 12:58:57;;;;;;;11.65;6.18;;;;;;;;;;5075659;28;20056;-64
2023/05/18 13:01:26;;;;;;;10.45;5.38;;;;;;;;;;5090725;28;20078;-65
2023/05/18 13:03:57;;;;;;;11.38;6.07;;;;;;;;;;5095578;28;20032;-63
2023/05/18 13:06:22;;;;;;;;;;;;;;;;;;5096313;28;20103;-64
2023/05/18 13:08:48;;;;;;;10.80;4.97;;;;;;;;;;5095513;28;20348;-64
2023/05/18 13:11:15;;;;;;;9.10;4.78;;;;;;;;;;5096242;28;20107;-64
2023/05/18 13:14:03;;;;;;;17.10;5.70;;;;;;;;;;5096067;28;20107;-63
2023/05/18 13:16:30;;;;;;;14.23;6.40;;;;;;;;;;5095796;28;20486;-64
2023/05/18 13:19:01;;;;;;;10.50;5.07;;;;;;;;;;5095339;28;20475;-64
2023/05/18 13:21:27;;;;;;;9.75;5.28;;;;;;;;;;5095647;28;20077;-64
2023/05/18 13:23:53;;;;;;;10.02;5.25;;;;;;;;;;5093542;28;20127;-64
2023/05/18 13:26:23;;;;;;;11.40;5.65;;;;;;;;;;5094073;28;20115;-64
2023/05/18 13:28:51;;;;;;;10.90;5.55;;;;;;;;;;5093068;28;20103;-64
2023/05/18 13:31:18;;;;;;;12.70;5.78;;;;;;;;;;5092638;28;20020;-64
2023/05/18 13:33:44;;;;;;;9.00;5.13;;;;;;;;;;5092838;28;20035;-64
2023/05/18 13:36:10;;;;;;;8.25;4.97;;;;;;;;;;5094269;28;20028;-64
2023/05/18 13:38:36;;;;;;;12.55;5.90;;;;;;;;;;5094609;28;20119;-64
2023/05/18 13:41:03;;;;;;;12.20;5.82;;;;;;;;;;5094602;28;20509;-64
2023/05/18 13:43:29;;;;;;;12.05;5.93;;;;;;;;;;5094095;28;20579;-63
2023/05/18 13:45:56;;;;;;;10.73;5.45;;;;;;;;;;5094580;28;20021;-64
2023/05/18 13:48:21;;;;;;;10.00;5.45;;;;;;;;;;5091976;28;20027;-64
2023/05/18 13:50:47;;;;;;;16.63;5.80;;;;;;;;;;5093692;28;20025;-63
2023/05/18 13:53:12;;;;;;;11.52;5.75;;;;;;;;;;5094659;28;20016;-63
2023/05/18 13:55:38;;;;;;;10.40;4.95;;;;;;;;;;5094693;28;20019;-63
2023/05/18 13:58:03;;;;;;;10.40;5.53;;;;;;;;;;5094180;28;20105;-64
2023/05/18 14:00:31;;;;;;;9.70;5.40;;;;;;;;;;5094960;28;20024;-63
2023/05/18 14:02:57;;;;;;;10.75;5.80;;;;;;;;;;5094518;28;20491;-63
2023/05/18 14:05:23;;;;;;;10.00;5.25;;;;;;;;;;5094261;28;20032;-63
2023/05/18 14:07:51;;;;;;;13.38;5.68;;;;;;;;;;5093256;28;20028;-64
2023/05/18 14:10:16;;;;;;;9.52;5.60;;;;;;;;;;5094577;28;20028;-64
2023/05/18 14:12:43;;;;;;;13.30;5.47;;;;;;;;;;5094545;28;20031;-64
2023/05/18 14:15:10;;;;;;;13.70;5.82;;;;;;;;;;5094506;28;20097;-63
2023/05/18 14:17:36;;;;;;;12.70;5.70;;;;;;;;;;5088853;28;20471;-65
2023/05/18 14:20:04;;;;;;;13.57;5.63;;;;;;;;;;5074209;28;20104;-64
2023/05/18 14:22:29;;;;;;;10.65;5.13;;;;;;;;;;5072997;28;20052;-64
2023/05/18 14:24:55;;;;;;;11.02;5.05;;;;;;;;;;5072942;28;20542;-64
2023/05/18 14:27:21;;;;;;;10.68;5.10;;;;;;;;;;5072519;28;20049;-65
2023/05/18 14:29:47;;;;;;;8.18;4.85;;;;;;;;;;5074314;28;20013;-64
2023/05/18 14:32:13;;;;;;;10.60;5.15;;;;;;;;;;5073330;28;20032;-63
2023/05/18 14:34:39;;;;;;;10.07;5.25;;;;;;;;;;5073939;28;20028;-64
2023/05/18 14:37:04;;;;;;;11.25;5.10;;;;;;;;;;5074024;28;20032;-64
2023/05/18 14:39:30;;;;;;;10.93;5.28;;;;;;;;;;5073384;28;20505;-64
2023/05/18 14:41:55;;;;;;;12.32;5.03;;;;;;;;;;5073767;28;20051;-63